createdAt,value
2022-12-16T00:01:15.912Z,58.57
2022-12-16T00:03:47.747Z,58.68
2022-12-16T00:06:14.091Z,58.19
2022-12-16T00:08:40.497Z,58.62
2022-12-16T00:11:08.068Z,58.39
2022-12-16T00:13:36.269Z,58.01
2022-12-16T00:16:12.081Z,58.85
2022-12-16T00:18:39.073Z,58.10
2022-12-16T00:21:06.515Z,58.48
2022-12-16T00:23:34.815Z,58.29
2022-12-16T00:26:02.157Z,58.36
2022-12-16T00:28:28.541Z,58.07
2022-12-16T00:30:55.943Z,57.99
2022-12-16T00:33:24.281Z,58.40
2022-12-16T00:35:51.348Z,58.11
2022-12-16T00:38:18.868Z,58.37
2022-12-16T00:40:45.356Z,58.15
2022-12-16T00:43:11.734Z,57.88
2022-12-16T00:45:39.221Z,58.01
2022-12-16T00:48:06.674Z,58.20
2022-12-16T00:50:33.380Z,58.41
2022-12-16T00:53:00.196Z,58.39
2022-12-16T00:55:27.167Z,58.19
2022-12-16T00:57:53.538Z,58.05
2022-12-16T01:00:22.363Z,58.15
2022-12-16T01:02:50.586Z,57.43
2022-12-16T01:05:20.631Z,57.42
2022-12-16T01:07:47.967Z,57.77
2022-12-16T01:10:14.519Z,57.88
2022-12-16T01:12:40.904Z,57.74
2022-12-16T01:17:47.017Z,57.46
2022-12-16T01:20:14.279Z,57.14
2022-12-16T01:22:42.127Z,57.21
2022-12-16T01:25:11.069Z,57.36
2022-12-16T01:27:37.484Z,56.95
2022-12-16T01:30:04.793Z,57.02
2022-12-16T01:32:31.425Z,57.35
2022-12-16T01:34:58.793Z,57.30
2022-12-16T01:37:25.360Z,57.05
2022-12-16T01:39:52.322Z,56.89
2022-12-16T01:42:21.284Z,57.03
2022-12-16T01:44:52.232Z,56.90
2022-12-16T01:47:32.881Z,57.10
2022-12-16T01:50:01.541Z,57.23
2022-12-16T01:52:36.217Z,56.59
2022-12-16T01:55:09.382Z,57.29
2022-12-16T01:57:51.455Z,57.25
2022-12-16T02:00:22.224Z,56.94
2022-12-16T02:02:49.560Z,57.09
2022-12-16T02:05:20.583Z,56.95
2022-12-16T02:08:14.930Z,57.63
2022-12-16T02:10:44.290Z,56.73
2022-12-16T02:13:47.913Z,56.93
2022-12-16T02:16:30.400Z,57.24
2022-12-16T02:19:10.863Z,56.60
2022-12-16T02:21:49.135Z,57.54
2022-12-16T02:24:45.069Z,57.55
2022-12-16T02:27:30.182Z,57.44
2022-12-16T02:30:06.599Z,57.66
2022-12-16T02:32:51.645Z,57.34
2022-12-16T02:35:38.668Z,58.60
2022-12-16T02:38:36.093Z,57.77
2022-12-16T02:41:12.676Z,58.12
2022-12-16T02:43:50.326Z,58.22
2022-12-16T02:46:19.225Z,58.04
2022-12-16T02:48:45.883Z,58.02
2022-12-16T02:51:12.669Z,57.80
2022-12-16T02:53:42.086Z,58.22
2022-12-16T02:56:36.517Z,58.61
2022-12-16T02:59:38.421Z,58.63
2022-12-16T03:02:16.426Z,58.35
2022-12-16T03:04:52.231Z,57.97
2022-12-16T03:07:22.716Z,57.93
2022-12-16T03:09:51.113Z,57.98
2022-12-16T03:12:20.151Z,57.75
2022-12-16T03:14:50.109Z,57.95
2022-12-16T03:17:18.634Z,58.12
2022-12-16T03:19:53.295Z,58.13
2022-12-16T03:22:27.958Z,58.15
2022-12-16T03:24:54.471Z,58.01
2022-12-16T03:27:28.526Z,57.99
2022-12-16T03:30:24.203Z,58.70
2022-12-16T03:33:03.888Z,57.89
2022-12-16T03:35:39.330Z,58.44
2022-12-16T03:38:10.090Z,58.19
2022-12-16T03:40:41.340Z,58.35
2022-12-16T03:43:09.250Z,57.98
2022-12-16T03:45:41.227Z,58.41
2022-12-16T03:48:12.834Z,58.57
2022-12-16T03:50:40.628Z,58.04
2022-12-16T03:53:07.905Z,58.14
2022-12-16T03:55:35.363Z,58.14
2022-12-16T03:58:01.882Z,58.03
2022-12-16T04:00:28.452Z,58.19
2022-12-16T04:02:55.180Z,58.73
2022-12-16T04:05:22.862Z,58.69
2022-12-16T04:07:49.336Z,58.61
2022-12-16T04:10:16.372Z,58.88
2022-12-16T04:13:01.376Z,58.68
2022-12-16T04:15:46.782Z,58.99
2022-12-16T04:18:37.487Z,59.79
2022-12-16T04:21:23.080Z,58.79
2022-12-16T04:24:11.872Z,59.41
2022-12-16T04:26:57.037Z,59.30
2022-12-16T04:29:24.189Z,59.30
2022-12-16T04:31:52.105Z,59.43
2022-12-16T04:34:29.395Z,59.31
2022-12-16T04:37:20.496Z,59.33
2022-12-16T04:40:06.329Z,59.19
2022-12-16T04:42:52.126Z,58.85
2022-12-16T04:45:37.642Z,58.88
2022-12-16T04:48:23.018Z,58.86
2022-12-16T04:51:07.952Z,58.75
2022-12-16T04:53:53.207Z,58.55
2022-12-16T04:56:38.566Z,58.37
2022-12-16T04:59:37.091Z,58.46
2022-12-16T05:02:21.938Z,58.24
2022-12-16T05:05:07.103Z,58.43
2022-12-16T05:07:51.913Z,58.28
2022-12-16T05:10:36.903Z,58.34
2022-12-16T05:13:21.679Z,58.40
2022-12-16T05:16:06.724Z,58.36
2022-12-16T05:18:51.812Z,58.08
2022-12-16T05:21:36.764Z,58.08
2022-12-16T05:24:21.929Z,58.21
2022-12-16T05:27:06.729Z,58.01
2022-12-16T05:29:51.604Z,57.99
2022-12-16T05:32:36.705Z,58.04
2022-12-16T05:35:21.987Z,57.30
2022-12-16T05:38:07.283Z,57.94
2022-12-16T05:40:52.427Z,57.17
2022-12-16T05:43:37.535Z,57.40
2022-12-16T05:46:22.317Z,57.65
2022-12-16T05:49:07.410Z,57.84
2022-12-16T05:51:52.440Z,57.72
2022-12-16T05:54:37.423Z,58.06
2022-12-16T05:57:22.812Z,57.66
2022-12-16T06:00:07.827Z,57.93
2022-12-16T06:02:52.661Z,57.98
2022-12-16T06:05:37.609Z,58.09
2022-12-16T06:08:23.087Z,57.64
2022-12-16T06:11:08.265Z,57.95
2022-12-16T06:13:53.333Z,57.99
2022-12-16T06:16:38.244Z,58.00
2022-12-16T06:19:23.745Z,58.31
2022-12-16T06:22:08.471Z,58.16
2022-12-16T06:24:53.303Z,58.58
2022-12-16T06:27:38.066Z,58.70
2022-12-16T06:30:23.424Z,58.81
2022-12-16T06:33:08.329Z,58.62
2022-12-16T06:35:53.318Z,58.58
2022-12-16T06:38:38.169Z,58.86
2022-12-16T06:41:23.212Z,58.82
2022-12-16T06:44:08.495Z,58.93
2022-12-16T06:46:53.616Z,58.77
2022-12-16T06:49:38.718Z,59.28
2022-12-16T06:52:23.525Z,58.90
2022-12-16T06:55:08.400Z,58.85
2022-12-16T06:57:53.376Z,58.70
2022-12-16T07:00:38.776Z,58.73
2022-12-16T07:03:24.313Z,59.01
2022-12-16T07:06:13.174Z,59.61
2022-12-16T07:08:58.249Z,59.45
2022-12-16T07:11:43.202Z,59.69
2022-12-16T07:14:28.085Z,59.58
2022-12-16T07:17:17.056Z,59.49
2022-12-16T07:20:02.431Z,59.65
2022-12-16T07:22:47.127Z,59.46
2022-12-16T07:25:31.977Z,59.41
2022-12-16T07:28:16.726Z,59.65
2022-12-16T07:31:02.649Z,59.76
2022-12-16T07:33:47.802Z,59.61
2022-12-16T07:36:33.101Z,59.18
2022-12-16T07:39:18.166Z,59.37
2022-12-16T07:42:02.796Z,59.27
2022-12-16T07:44:47.524Z,59.46
2022-12-16T07:47:32.182Z,59.26
2022-12-16T07:50:16.871Z,59.33
2022-12-16T07:53:01.724Z,59.71
2022-12-16T07:55:46.470Z,59.46
2022-12-16T07:58:31.122Z,59.46
2022-12-16T08:01:15.991Z,59.70
2022-12-16T08:04:00.762Z,59.89
2022-12-16T08:06:45.634Z,59.92
2022-12-16T08:09:30.269Z,59.77
2022-12-16T08:12:15.002Z,60.17
2022-12-16T08:14:59.714Z,60.17
2022-12-16T08:17:44.470Z,60.23
2022-12-16T08:20:29.790Z,60.36
2022-12-16T08:23:14.415Z,60.49
2022-12-16T08:25:59.222Z,60.10
2022-12-16T08:28:43.831Z,60.24
2022-12-16T08:31:28.740Z,60.44
2022-12-16T08:34:13.539Z,60.47
2022-12-16T08:36:58.374Z,60.46
2022-12-16T08:39:43.059Z,60.38
2022-12-16T08:42:27.691Z,60.12
2022-12-16T08:45:12.432Z,59.65
2022-12-16T08:47:57.193Z,59.93
2022-12-16T08:50:41.995Z,59.90
2022-12-16T08:53:27.320Z,59.71
2022-12-16T08:56:12.508Z,60.26
2022-12-16T08:58:57.328Z,59.80
2022-12-16T09:01:42.235Z,60.01
2022-12-16T09:04:27.228Z,60.19
2022-12-16T09:07:11.914Z,60.14
2022-12-16T09:09:56.654Z,59.50
2022-12-16T09:12:41.822Z,59.74
2022-12-16T09:15:27.313Z,59.03
2022-12-16T09:18:15.631Z,59.47
2022-12-16T09:21:00.868Z,59.14
2022-12-16T09:23:46.147Z,59.53
2022-12-16T09:26:31.481Z,59.28
2022-12-16T09:29:16.342Z,59.30
2022-12-16T09:32:01.459Z,59.30
2022-12-16T09:34:46.236Z,59.65
2022-12-16T09:37:30.973Z,59.43
2022-12-16T09:40:15.795Z,59.42
2022-12-16T09:43:09.328Z,59.46
2022-12-16T09:45:57.293Z,59.41
2022-12-16T09:49:11.934Z,59.95
2022-12-16T09:51:58.964Z,59.98
2022-12-16T09:54:48.116Z,59.65
2022-12-16T09:57:33.751Z,59.77
2022-12-16T10:00:25.008Z,59.42
2022-12-16T10:03:10.469Z,59.48
2022-12-16T10:06:09.747Z,59.31
2022-12-16T10:09:05.755Z,59.05
2022-12-16T10:12:20.019Z,59.08
2022-12-16T10:15:17.999Z,59.11
2022-12-16T10:18:04.786Z,59.18
2022-12-16T10:21:02.431Z,58.91
2022-12-16T10:23:56.921Z,58.81
2022-12-16T10:27:43.414Z,58.99
2022-12-16T10:30:33.266Z,59.32
2022-12-16T10:33:18.992Z,59.04
2022-12-16T10:36:15.767Z,58.99
2022-12-16T10:39:08.681Z,59.54
2022-12-16T10:41:56.788Z,59.06
2022-12-16T10:44:41.572Z,59.46
2022-12-16T10:47:28.759Z,59.49
2022-12-16T10:50:13.498Z,59.21
2022-12-16T10:53:37.601Z,58.59
2022-12-16T10:57:05.782Z,58.24
2022-12-16T10:59:59.231Z,58.18
2022-12-16T11:02:45.778Z,58.12
2022-12-16T11:06:01.133Z,57.76
2022-12-16T11:08:55.528Z,58.01
2022-12-16T11:11:43.657Z,59.17
2022-12-16T11:17:54.035Z,63.41
2022-12-16T11:20:43.390Z,64.76
2022-12-16T11:23:38.889Z,63.04
2022-12-16T11:26:33.089Z,64.30
2022-12-16T11:29:20.958Z,64.91
2022-12-16T11:32:13.311Z,61.36
2022-12-16T11:35:00.143Z,61.21
2022-12-16T11:37:47.950Z,58.49
2022-12-16T11:40:35.631Z,57.77
2022-12-16T11:43:24.399Z,55.64
2022-12-16T11:46:11.135Z,56.28
2022-12-16T11:49:25.742Z,51.92
2022-12-16T11:52:36.346Z,50.90
2022-12-16T11:56:06.562Z,49.66
2022-12-16T11:58:48.011Z,51.92
2022-12-16T12:01:45.587Z,48.33
2022-12-16T12:04:32.902Z,50.01
2022-12-16T12:07:45.361Z,45.25
2022-12-16T12:11:09.585Z,44.45
2022-12-16T12:14:06.532Z,44.46
2022-12-16T12:17:04.401Z,43.59
2022-12-16T12:20:06.855Z,42.23
2022-12-16T12:22:57.360Z,41.80
2022-12-16T12:25:57.318Z,40.99
2022-12-16T12:28:53.585Z,40.02
2022-12-16T12:31:52.786Z,39.09
2022-12-16T12:34:58.488Z,39.66
2022-12-16T12:37:52.350Z,39.66
2022-12-16T12:40:59.683Z,39.70
2022-12-16T12:44:15.676Z,40.49
2022-12-16T12:47:04.019Z,41.79
2022-12-16T12:50:02.873Z,41.16
2022-12-16T12:53:09.881Z,41.06
2022-12-16T12:56:08.668Z,41.03
2022-12-16T12:58:56.512Z,41.35
2022-12-16T13:01:48.014Z,40.40
2022-12-16T13:04:36.964Z,39.91
2022-12-16T13:07:23.266Z,40.98
2022-12-16T13:10:43.974Z,41.66
2022-12-16T13:13:52.609Z,40.37
2022-12-16T13:20:04.810Z,41.25
2022-12-16T13:22:52.847Z,41.77
2022-12-16T13:25:58.584Z,42.16
2022-12-16T13:29:03.167Z,42.98
2022-12-16T13:31:49.212Z,43.39
2022-12-16T13:34:34.236Z,43.78
2022-12-16T13:37:28.274Z,44.29
2022-12-16T13:40:32.270Z,43.93
2022-12-16T13:43:23.324Z,44.28
2022-12-16T13:46:18.147Z,44.20
2022-12-16T13:49:03.315Z,45.04
2022-12-16T13:51:57.192Z,44.37
2022-12-16T13:55:11.123Z,44.47
2022-12-16T13:58:01.748Z,44.62
2022-12-16T14:00:47.571Z,45.41
2022-12-16T14:03:46.123Z,45.20
2022-12-16T14:06:38.827Z,45.70
2022-12-16T14:09:36.553Z,45.67
2022-12-16T14:12:29.789Z,45.44
2022-12-16T14:15:24.216Z,45.56
2022-12-16T14:18:43.566Z,45.63
2022-12-16T14:21:34.315Z,45.57
2022-12-16T14:24:46.521Z,45.31
2022-12-16T14:27:41.136Z,44.68
2022-12-16T14:30:35.209Z,44.41
2022-12-16T14:33:41.305Z,44.42
2022-12-16T14:36:46.084Z,44.83
2022-12-16T14:39:42.531Z,44.65
2022-12-16T14:42:45.945Z,45.46
2022-12-16T14:45:46.807Z,45.77
2022-12-16T14:48:46.015Z,45.71
2022-12-16T14:51:53.418Z,46.44
2022-12-16T14:54:44.604Z,45.96
2022-12-16T14:57:50.052Z,46.52
2022-12-16T15:00:40.957Z,46.32
2022-12-16T15:03:52.329Z,47.14
2022-12-16T15:06:48.495Z,47.08
2022-12-16T15:09:57.697Z,47.89
2022-12-16T15:12:46.592Z,47.25
2022-12-16T15:15:44.959Z,47.90
2022-12-16T15:18:36.811Z,47.96
2022-12-16T15:21:22.206Z,47.74
2022-12-16T15:24:07.388Z,48.04
2022-12-16T15:26:53.667Z,48.70
2022-12-16T15:29:59.846Z,49.32
2022-12-16T15:32:44.729Z,48.80
2022-12-16T15:35:44.748Z,49.61
2022-12-16T15:38:45.114Z,49.42
2022-12-16T15:41:38.630Z,50.04
2022-12-16T15:44:23.954Z,49.36
2022-12-16T15:47:08.679Z,49.31
2022-12-16T15:50:03.776Z,49.81
2022-12-16T15:52:49.170Z,49.86
2022-12-16T15:55:48.196Z,50.81
2022-12-16T15:58:46.247Z,50.93
2022-12-16T16:01:34.987Z,50.78
2022-12-16T16:04:20.801Z,50.56
2022-12-16T16:07:11.108Z,51.22
2022-12-16T16:09:58.569Z,51.42
2022-12-16T16:12:44.428Z,51.13
2022-12-16T16:15:32.585Z,51.14
2022-12-16T16:18:21.388Z,50.75
2022-12-16T16:21:07.057Z,50.92
2022-12-16T16:23:52.276Z,51.20
2022-12-16T16:26:40.420Z,51.91
2022-12-16T16:29:27.593Z,51.43
2022-12-16T16:32:12.773Z,51.63
2022-12-16T16:34:57.613Z,52.12
2022-12-16T16:37:42.486Z,51.70
2022-12-16T16:40:49.767Z,53.24
2022-12-16T16:43:35.911Z,52.37
2022-12-16T16:46:31.512Z,52.97
2022-12-16T16:49:16.903Z,52.12
2022-12-16T16:52:01.806Z,51.87
2022-12-16T16:54:47.130Z,52.42
2022-12-16T16:57:32.440Z,51.81
2022-12-16T17:00:17.876Z,51.97
2022-12-16T17:03:03.429Z,52.15
2022-12-16T17:05:48.501Z,52.35
2022-12-16T17:08:33.591Z,52.44
2022-12-16T17:11:18.590Z,52.91
2022-12-16T17:14:03.404Z,52.28
2022-12-16T17:16:48.212Z,52.78
2022-12-16T17:19:33.100Z,52.88
2022-12-16T17:22:17.877Z,52.44
2022-12-16T17:25:02.896Z,52.52
2022-12-16T17:27:47.904Z,53.14
2022-12-16T17:30:44.925Z,53.06
2022-12-16T17:33:32.488Z,52.76
2022-12-16T17:36:18.103Z,52.92
2022-12-16T17:39:03.520Z,53.30
2022-12-16T17:41:50.772Z,53.08
2022-12-16T17:44:36.803Z,52.49
2022-12-16T17:47:22.644Z,53.02
2022-12-16T17:50:07.494Z,52.80
2022-12-16T17:52:52.479Z,52.86
2022-12-16T17:55:37.536Z,53.53
2022-12-16T17:58:22.215Z,53.52
2022-12-16T18:01:06.971Z,52.82
2022-12-16T18:03:52.331Z,52.93
2022-12-16T18:06:39.172Z,53.05
2022-12-16T18:09:24.598Z,53.10
2022-12-16T18:12:09.572Z,53.20
2022-12-16T18:14:54.445Z,53.32
2022-12-16T18:17:39.481Z,52.91
2022-12-16T18:20:24.746Z,53.12
2022-12-16T18:23:12.865Z,54.05
2022-12-16T18:25:58.282Z,53.29
2022-12-16T18:28:43.490Z,53.28
2022-12-16T18:31:28.980Z,53.42
2022-12-16T18:34:13.947Z,53.37
2022-12-16T18:36:59.166Z,53.53
2022-12-16T18:39:44.124Z,53.27
2022-12-16T18:42:29.325Z,53.34
2022-12-16T18:45:14.436Z,53.27
2022-12-16T18:47:59.226Z,53.56
2022-12-16T18:50:44.201Z,53.81
2022-12-16T18:53:29.322Z,53.97
2022-12-16T18:56:19.139Z,54.71
2022-12-16T18:59:04.059Z,53.84
2022-12-16T19:01:49.071Z,54.31
2022-12-16T19:04:34.259Z,54.09
2022-12-16T19:07:19.205Z,54.07
2022-12-16T19:10:04.100Z,54.58
2022-12-16T19:12:49.566Z,53.94
2022-12-16T19:15:39.503Z,54.38
2022-12-16T19:18:26.235Z,54.29
2022-12-16T19:21:12.421Z,54.27
2022-12-16T19:23:57.238Z,54.50
2022-12-16T19:26:42.514Z,54.20
2022-12-16T19:29:27.572Z,53.97
2022-12-16T19:32:12.669Z,53.83
2022-12-16T19:34:57.576Z,53.81
2022-12-16T19:37:42.358Z,54.23
2022-12-16T19:40:28.575Z,54.65
2022-12-16T19:43:13.387Z,54.16
2022-12-16T19:45:58.204Z,54.69
2022-12-16T19:48:43.611Z,54.99
2022-12-16T19:51:28.410Z,54.73
2022-12-16T19:54:13.221Z,54.38
2022-12-16T19:56:57.800Z,54.67
2022-12-16T19:59:42.636Z,54.59
2022-12-16T20:02:30.700Z,55.04
2022-12-16T20:05:16.368Z,54.80
2022-12-16T20:08:01.317Z,54.54
2022-12-16T20:10:46.258Z,54.58
2022-12-16T20:13:32.073Z,55.10
2022-12-16T20:16:21.573Z,55.79
2022-12-16T20:19:06.917Z,54.72
2022-12-16T20:21:56.182Z,55.27
2022-12-16T20:24:41.800Z,55.36
2022-12-16T20:27:27.088Z,55.16
2022-12-16T20:30:11.845Z,55.10
2022-12-16T20:32:56.620Z,54.86
2022-12-16T20:35:41.467Z,54.69
2022-12-16T20:38:27.148Z,55.03
2022-12-16T20:41:16.761Z,54.99
2022-12-16T20:44:02.081Z,54.98
2022-12-16T20:46:49.272Z,54.46
2022-12-16T20:49:34.339Z,54.47
2022-12-16T20:52:19.371Z,54.65
2022-12-16T20:55:04.273Z,54.56
2022-12-16T20:57:49.691Z,55.18
2022-12-16T21:00:35.284Z,54.85
2022-12-16T21:03:19.977Z,55.30
2022-12-16T21:06:05.444Z,54.56
2022-12-16T21:08:50.148Z,54.40
2022-12-16T21:11:35.024Z,54.49
2022-12-16T21:14:19.736Z,55.26
2022-12-16T21:17:04.614Z,54.86
2022-12-16T21:19:49.462Z,55.05
2022-12-16T21:22:34.358Z,55.36
2022-12-16T21:25:24.478Z,55.34
2022-12-16T21:28:13.801Z,55.71
2022-12-16T21:30:58.481Z,55.49
2022-12-16T21:33:43.635Z,55.57
2022-12-16T21:36:45.758Z,55.35
2022-12-16T21:39:30.894Z,55.22
2022-12-16T21:42:16.078Z,55.79
2022-12-16T21:45:00.898Z,55.59
2022-12-16T21:47:45.570Z,55.13
2022-12-16T21:50:30.319Z,55.71
2022-12-16T21:53:15.315Z,55.33
2022-12-16T21:56:00.247Z,55.13
2022-12-16T21:58:44.974Z,55.08
2022-12-16T22:01:29.840Z,55.02
2022-12-16T22:04:14.912Z,54.78
2022-12-16T22:06:59.784Z,54.65
2022-12-16T22:09:44.650Z,54.60
2022-12-16T22:12:29.525Z,54.62
2022-12-16T22:15:14.252Z,54.20
2022-12-16T22:17:59.072Z,54.35
2022-12-16T22:20:44.825Z,54.34
2022-12-16T22:23:29.681Z,54.30
2022-12-16T22:26:16.070Z,54.45
2022-12-16T22:29:00.840Z,54.64
2022-12-16T22:31:46.130Z,54.53
2022-12-16T22:34:31.321Z,54.39
2022-12-16T22:37:16.066Z,54.66
2022-12-16T22:40:00.882Z,54.66
2022-12-16T22:42:46.010Z,55.33
2022-12-16T22:45:31.041Z,55.38
2022-12-16T22:48:15.686Z,55.33
2022-12-16T22:51:00.660Z,55.36
2022-12-16T22:53:45.789Z,55.29
2022-12-16T22:56:31.099Z,55.71
2022-12-16T22:59:16.078Z,56.11
2022-12-16T23:02:01.315Z,55.30
2022-12-16T23:04:46.439Z,55.15
2022-12-16T23:07:31.675Z,54.71
2022-12-16T23:10:16.973Z,54.58
2022-12-16T23:13:01.691Z,54.78
2022-12-16T23:15:46.695Z,54.60
2022-12-16T23:18:31.811Z,55.05
2022-12-16T23:21:16.743Z,55.43
2022-12-16T23:24:01.417Z,55.39
2022-12-16T23:26:46.366Z,55.77
2022-12-16T23:29:31.387Z,55.93
2022-12-16T23:32:16.221Z,56.42
2022-12-16T23:35:00.944Z,56.22
2022-12-16T23:37:45.737Z,56.62
2022-12-16T23:40:30.972Z,56.54
2022-12-16T23:43:15.770Z,56.84
2022-12-16T23:46:02.273Z,56.95
2022-12-16T23:48:47.468Z,56.69
2022-12-16T23:51:32.125Z,56.91
2022-12-16T23:54:16.900Z,57.17
2022-12-16T23:57:01.600Z,57.22
2022-12-16T23:59:46.557Z,57.51
